createdAt,value
2017-09-07T00:01:27.643Z,84.70
2017-09-07T00:03:55.168Z,85.00
2017-09-07T00:06:22.665Z,85.20
2017-09-07T00:08:50.182Z,85.00
2017-09-07T00:11:17.699Z,85.30
2017-09-07T00:13:45.239Z,85.60
2017-09-07T00:16:14.975Z,85.70
2017-09-07T00:18:42.524Z,85.20
2017-09-07T00:21:11.982Z,85.30
2017-09-07T00:24:08.945Z,85.60
2017-09-07T00:26:38.458Z,85.80
2017-09-07T00:29:05.946Z,86.00
2017-09-07T00:31:33.475Z,86.00
2017-09-07T00:34:00.971Z,86.20
2017-09-07T00:36:28.593Z,86.50
2017-09-07T00:38:56.086Z,86.40
2017-09-07T00:41:23.590Z,86.30
2017-09-07T00:43:51.139Z,86.40
2017-09-07T00:46:18.658Z,86.40
2017-09-07T00:48:46.166Z,86.50
2017-09-07T00:51:13.697Z,86.70
2017-09-07T00:53:41.596Z,86.90
2017-09-07T00:56:09.094Z,86.90
2017-09-07T00:58:36.599Z,87.00
2017-09-07T01:01:04.119Z,87.40
2017-09-07T01:03:31.651Z,87.20
2017-09-07T01:05:59.148Z,87.30
2017-09-07T01:08:27.062Z,87.30
2017-09-07T01:10:54.558Z,87.30
2017-09-07T01:13:22.126Z,87.20
2017-09-07T01:15:49.619Z,87.20
2017-09-07T01:18:17.113Z,87.40
2017-09-07T01:20:45.755Z,87.70
2017-09-07T01:23:13.262Z,87.60
2017-09-07T01:25:40.734Z,88.10
2017-09-07T01:28:08.234Z,88.00
2017-09-07T01:30:36.666Z,88.20
2017-09-07T01:33:04.168Z,88.30
2017-09-07T01:35:31.647Z,88.50
2017-09-07T01:38:01.090Z,88.50
2017-09-07T01:40:29.922Z,88.70
2017-09-07T01:42:57.419Z,88.60
2017-09-07T01:45:24.935Z,88.30
2017-09-07T01:47:52.466Z,88.30
2017-09-07T01:50:19.976Z,88.30
2017-09-07T01:52:47.470Z,88.30
2017-09-07T01:55:16.989Z,88.40
2017-09-07T01:57:44.483Z,88.20
2017-09-07T02:00:12.381Z,88.40
2017-09-07T02:02:40.009Z,88.40
2017-09-07T02:05:07.522Z,88.60
2017-09-07T02:07:35.410Z,88.70
2017-09-07T02:10:02.931Z,88.70
2017-09-07T02:12:30.410Z,88.70
2017-09-07T02:14:57.978Z,88.70
2017-09-07T02:17:25.467Z,88.50
2017-09-07T02:19:52.989Z,88.50
2017-09-07T02:22:20.515Z,88.80
2017-09-07T02:24:48.031Z,88.90
2017-09-07T02:27:15.520Z,89.20
2017-09-07T02:29:45.046Z,89.40
2017-09-07T02:32:12.572Z,89.20
2017-09-07T02:34:41.014Z,89.00
2017-09-07T02:37:08.527Z,89.10
2017-09-07T02:39:36.943Z,89.40
2017-09-07T02:42:04.490Z,89.10
2017-09-07T02:44:31.989Z,89.00
2017-09-07T02:46:59.487Z,89.20
2017-09-07T02:49:27.023Z,89.20
2017-09-07T02:51:54.525Z,89.40
2017-09-07T02:54:22.058Z,89.40
2017-09-07T02:56:50.506Z,89.60
2017-09-07T02:59:18.010Z,89.60
2017-09-07T03:01:45.521Z,89.60
2017-09-07T03:04:13.038Z,89.50
2017-09-07T03:06:40.524Z,89.60
2017-09-07T03:09:09.966Z,89.70
2017-09-07T03:11:37.463Z,89.70
2017-09-07T03:14:05.014Z,89.70
2017-09-07T03:16:32.529Z,89.80
2017-09-07T03:19:00.031Z,89.70
2017-09-07T03:21:27.543Z,90.00
2017-09-07T03:23:55.035Z,89.90
2017-09-07T03:26:23.167Z,89.90
2017-09-07T03:28:50.674Z,90.10
2017-09-07T03:31:18.149Z,90.00
2017-09-07T03:33:45.653Z,90.20
2017-09-07T03:36:13.143Z,90.10
2017-09-07T03:38:40.647Z,90.10
2017-09-07T03:41:08.162Z,90.10
2017-09-07T03:43:38.082Z,90.20
2017-09-07T03:46:05.580Z,90.20
2017-09-07T03:48:33.127Z,89.90
2017-09-07T03:51:00.607Z,89.90
2017-09-07T03:53:28.112Z,89.90
2017-09-07T03:55:56.419Z,90.10
2017-09-07T03:58:23.928Z,90.10
2017-09-07T04:00:51.422Z,90.20
2017-09-07T04:03:18.937Z,90.20
2017-09-07T04:05:47.384Z,90.20
2017-09-07T04:08:14.895Z,90.30
2017-09-07T04:10:42.406Z,90.10
2017-09-07T04:13:09.934Z,90.10
2017-09-07T04:15:38.383Z,90.40
2017-09-07T04:18:05.867Z,90.10
2017-09-07T04:20:33.385Z,90.10
2017-09-07T04:23:00.906Z,90.10
2017-09-07T04:25:28.411Z,90.30
2017-09-07T04:27:55.918Z,90.30
2017-09-07T04:30:23.418Z,90.30
2017-09-07T04:32:51.314Z,90.30
2017-09-07T04:35:18.830Z,90.30
2017-09-07T04:37:46.322Z,90.20
2017-09-07T04:40:13.838Z,90.30
2017-09-07T04:42:43.330Z,90.30
2017-09-07T04:45:10.816Z,90.40
2017-09-07T04:47:38.727Z,90.70
2017-09-07T04:50:06.210Z,90.70
2017-09-07T04:52:34.662Z,90.50
2017-09-07T04:55:02.176Z,90.60
2017-09-07T04:57:29.701Z,90.40
2017-09-07T04:59:57.194Z,90.50
2017-09-07T05:02:24.734Z,90.30
2017-09-07T05:04:53.190Z,90.70
2017-09-07T05:07:20.690Z,90.60
2017-09-07T05:09:48.582Z,90.60
2017-09-07T05:12:16.090Z,90.60
2017-09-07T05:14:43.586Z,90.60
2017-09-07T05:17:11.086Z,90.70
2017-09-07T05:19:38.594Z,90.60
2017-09-07T05:22:06.139Z,90.60
2017-09-07T05:24:33.623Z,90.40
2017-09-07T05:27:02.107Z,90.60
2017-09-07T05:29:29.598Z,90.70
2017-09-07T05:31:57.179Z,90.60
2017-09-07T05:34:24.698Z,90.60
2017-09-07T05:36:52.254Z,90.60
2017-09-07T05:39:19.744Z,90.80
2017-09-07T05:41:47.258Z,90.70
2017-09-07T05:44:14.753Z,90.70
2017-09-07T05:46:42.257Z,90.60
2017-09-07T05:49:09.791Z,90.70
2017-09-07T05:51:37.707Z,90.60
2017-09-07T05:54:05.237Z,90.60
2017-09-07T05:56:33.644Z,90.70
2017-09-07T05:59:01.120Z,90.50
2017-09-07T06:01:29.407Z,90.60
2017-09-07T06:03:58.870Z,90.40
2017-09-07T06:06:26.372Z,90.30
2017-09-07T06:08:53.870Z,90.50
2017-09-07T06:11:21.358Z,90.40
2017-09-07T06:13:50.790Z,90.40
2017-09-07T06:16:18.286Z,90.50
2017-09-07T06:18:45.806Z,90.40
2017-09-07T06:21:14.239Z,90.60
2017-09-07T06:23:41.762Z,90.40
2017-09-07T06:26:09.675Z,90.30
2017-09-07T06:28:37.195Z,90.30
2017-09-07T06:31:04.683Z,90.20
2017-09-07T06:33:32.185Z,90.30
2017-09-07T06:35:59.679Z,90.20
2017-09-07T06:38:27.182Z,90.30
2017-09-07T06:40:54.661Z,89.80
2017-09-07T06:43:22.190Z,89.60
2017-09-07T06:45:49.696Z,90.00
2017-09-07T06:48:17.207Z,89.80
2017-09-07T06:50:44.702Z,89.70
2017-09-07T06:53:12.223Z,90.00
2017-09-07T06:55:39.710Z,89.80
2017-09-07T06:58:07.222Z,89.80
2017-09-07T07:00:34.707Z,89.80
2017-09-07T07:03:02.948Z,89.70
2017-09-07T07:05:30.451Z,89.90
2017-09-07T07:07:57.944Z,89.50
2017-09-07T07:10:25.453Z,89.10
2017-09-07T07:12:52.934Z,88.80
2017-09-07T07:15:20.454Z,88.80
2017-09-07T07:17:47.930Z,88.80
2017-09-07T07:20:15.453Z,88.40
2017-09-07T07:22:42.958Z,88.10
2017-09-07T07:25:10.444Z,88.50
2017-09-07T07:27:37.946Z,88.10
2017-09-07T07:30:05.459Z,87.80
2017-09-07T07:32:32.949Z,88.10
2017-09-07T07:35:00.442Z,87.50
2017-09-07T07:37:27.934Z,87.40
2017-09-07T07:39:55.447Z,87.50
2017-09-07T07:42:22.939Z,87.10
2017-09-07T07:44:51.430Z,86.80
2017-09-07T07:47:18.983Z,86.80
2017-09-07T07:49:46.538Z,86.70
2017-09-07T07:52:14.045Z,86.80
2017-09-07T07:54:41.546Z,85.90
2017-09-07T07:57:09.062Z,86.00
2017-09-07T07:59:37.499Z,85.80
2017-09-07T08:02:05.044Z,85.70
2017-09-07T08:04:32.532Z,85.70
2017-09-07T08:07:00.048Z,85.70
2017-09-07T08:09:27.925Z,84.40
2017-09-07T08:11:55.447Z,84.40
2017-09-07T08:14:22.942Z,84.20
2017-09-07T08:16:50.483Z,84.40
2017-09-07T08:19:18.000Z,84.20
2017-09-07T08:21:45.535Z,84.20
2017-09-07T08:24:13.018Z,83.60
2017-09-07T08:26:40.527Z,83.60
2017-09-07T08:29:08.029Z,83.90
2017-09-07T08:31:35.534Z,83.30
2017-09-07T08:34:03.094Z,83.30
2017-09-07T08:36:30.617Z,82.80
2017-09-07T08:38:58.123Z,83.10
2017-09-07T08:41:25.652Z,84.20
2017-09-07T08:43:53.146Z,83.70
2017-09-07T08:46:20.663Z,83.10
2017-09-07T08:48:48.181Z,82.30
2017-09-07T08:51:15.666Z,82.70
2017-09-07T08:53:44.125Z,82.80
2017-09-07T08:56:11.634Z,81.40
2017-09-07T08:58:39.156Z,81.20
2017-09-07T09:01:06.654Z,80.80
2017-09-07T09:03:34.179Z,80.80
2017-09-07T09:06:01.678Z,81.30
2017-09-07T09:08:29.210Z,80.90
2017-09-07T09:10:57.993Z,80.50
2017-09-07T09:13:25.547Z,81.00
2017-09-07T09:15:53.075Z,81.40
2017-09-07T09:18:21.386Z,81.20
2017-09-07T09:20:48.891Z,80.40
2017-09-07T09:23:16.397Z,78.80
2017-09-07T09:25:43.899Z,78.80
2017-09-07T09:28:11.386Z,79.00
2017-09-07T09:30:38.894Z,79.60
2017-09-07T09:33:06.395Z,80.60
2017-09-07T09:35:33.899Z,80.20
2017-09-07T09:38:01.444Z,79.60
2017-09-07T09:40:28.970Z,78.50
2017-09-07T09:42:56.493Z,79.10
2017-09-07T09:45:24.019Z,79.80
2017-09-07T09:47:51.510Z,79.60
2017-09-07T09:50:21.096Z,78.50
2017-09-07T09:52:48.602Z,78.60
2017-09-07T09:55:16.102Z,78.20
2017-09-07T09:57:43.589Z,78.40
2017-09-07T10:00:13.090Z,77.80
2017-09-07T10:02:41.539Z,77.20
2017-09-07T10:05:09.086Z,76.40
2017-09-07T10:07:36.582Z,76.20
2017-09-07T10:10:04.137Z,76.50
2017-09-07T10:12:31.658Z,75.50
2017-09-07T10:15:01.130Z,75.70
2017-09-07T10:17:28.637Z,75.00
2017-09-07T10:19:56.182Z,75.30
2017-09-07T10:22:23.687Z,74.80
2017-09-07T10:24:51.205Z,74.50
2017-09-07T10:27:18.703Z,73.90
2017-09-07T10:29:46.186Z,73.70
2017-09-07T10:32:13.695Z,73.40
2017-09-07T10:34:41.226Z,74.80
2017-09-07T10:37:08.730Z,74.00
2017-09-07T10:39:37.208Z,74.80
2017-09-07T10:42:04.714Z,74.60
2017-09-07T10:44:32.211Z,76.10
2017-09-07T10:46:59.721Z,74.80
2017-09-07T10:49:27.212Z,73.50
2017-09-07T10:51:56.650Z,72.40
2017-09-07T10:54:24.131Z,72.60
2017-09-07T10:56:51.662Z,71.70
2017-09-07T10:59:19.151Z,72.30
2017-09-07T11:01:46.661Z,71.20
2017-09-07T11:04:14.166Z,71.70
2017-09-07T11:06:41.642Z,71.00
2017-09-07T11:09:09.164Z,70.90
2017-09-07T11:11:36.663Z,71.40
2017-09-07T11:14:04.226Z,69.20
2017-09-07T11:16:31.740Z,69.90
2017-09-07T11:18:59.982Z,70.40
2017-09-07T11:21:28.820Z,70.00
2017-09-07T11:23:56.333Z,70.00
2017-09-07T11:26:23.862Z,70.70
2017-09-07T11:28:51.378Z,69.50
2017-09-07T11:31:20.854Z,69.20
2017-09-07T11:33:48.350Z,69.00
2017-09-07T11:36:15.858Z,69.30
2017-09-07T11:38:45.573Z,69.60
2017-09-07T11:41:13.104Z,69.60
2017-09-07T11:43:40.597Z,69.90
2017-09-07T11:46:08.118Z,70.20
2017-09-07T11:48:35.642Z,69.30
2017-09-07T11:51:03.162Z,69.80
2017-09-07T11:53:31.500Z,69.90
2017-09-07T11:55:59.078Z,70.10
2017-09-07T11:58:26.618Z,69.60
2017-09-07T12:00:55.092Z,69.60
2017-09-07T12:03:22.617Z,71.10
2017-09-07T12:05:50.130Z,70.10
2017-09-07T12:08:18.371Z,70.40
2017-09-07T12:10:45.896Z,70.10
2017-09-07T12:13:13.472Z,71.70
2017-09-07T12:15:40.993Z,71.80
2017-09-07T12:18:08.492Z,72.70
2017-09-07T12:20:36.002Z,69.80
2017-09-07T12:23:04.432Z,69.90
2017-09-07T12:25:31.942Z,70.50
2017-09-07T12:27:59.497Z,70.30
2017-09-07T12:30:28.993Z,70.30
2017-09-07T12:32:56.486Z,69.90
2017-09-07T12:35:23.982Z,70.20
2017-09-07T12:37:53.304Z,70.50
2017-09-07T12:40:21.555Z,71.20
2017-09-07T12:42:49.186Z,71.20
2017-09-07T12:45:16.722Z,70.40
2017-09-07T12:47:44.227Z,70.60
2017-09-07T12:50:11.825Z,69.90
2017-09-07T12:52:39.379Z,70.50
2017-09-07T12:55:06.924Z,70.50
2017-09-07T12:57:36.266Z,70.70
2017-09-07T13:00:04.653Z,71.20
2017-09-07T13:02:34.208Z,71.30
2017-09-07T13:05:01.891Z,71.40
2017-09-07T13:07:30.634Z,71.90
2017-09-07T13:09:59.173Z,71.90
2017-09-07T13:12:29.907Z,71.90
2017-09-07T13:14:57.706Z,72.10
2017-09-07T13:19:50.108Z,70.90
2017-09-07T13:22:19.040Z,71.10
2017-09-07T13:24:47.727Z,71.30
2017-09-07T13:27:21.531Z,71.30
2017-09-07T13:29:53.171Z,71.30
2017-09-07T13:32:23.273Z,71.20
2017-09-07T13:34:52.212Z,70.30
2017-09-07T13:37:26.546Z,70.40
2017-09-07T13:39:55.308Z,69.30
2017-09-07T13:42:22.937Z,70.40
2017-09-07T13:47:25.663Z,68.60
2017-09-07T13:49:53.331Z,68.70
2017-09-07T13:52:27.781Z,69.90
2017-09-07T13:58:05.827Z,69.30
2017-09-07T14:00:34.686Z,68.40
2017-09-07T14:03:14.938Z,68.60
2017-09-07T14:05:44.542Z,68.20
2017-09-07T14:08:27.175Z,68.40
2017-09-07T14:15:08.269Z,68.00
2017-09-07T14:17:36.892Z,68.20
2017-09-07T14:20:04.513Z,68.80
2017-09-07T14:22:32.872Z,68.70
2017-09-07T14:25:02.433Z,68.30
2017-09-07T14:27:30.045Z,69.10
2017-09-07T14:29:57.702Z,67.30
2017-09-07T14:32:26.142Z,68.30
2017-09-07T14:35:08.054Z,69.10
2017-09-07T14:37:35.625Z,69.10
2017-09-07T14:42:53.634Z,68.00
2017-09-07T14:45:21.286Z,68.00
2017-09-07T14:47:49.948Z,68.40
2017-09-07T14:50:17.556Z,69.20
2017-09-07T14:52:46.320Z,69.90
2017-09-07T14:55:13.890Z,68.90
2017-09-07T14:57:42.630Z,69.60
2017-09-07T15:00:12.127Z,69.60
2017-09-07T15:02:40.757Z,68.50
2017-09-07T15:05:08.355Z,68.50
2017-09-07T15:07:35.870Z,68.80
2017-09-07T15:10:03.843Z,68.80
2017-09-07T15:12:35.563Z,68.80
2017-09-07T15:15:05.055Z,69.10
2017-09-07T15:17:32.658Z,69.10
2017-09-07T15:20:00.174Z,69.60
2017-09-07T15:22:27.676Z,70.10
2017-09-07T15:24:55.194Z,69.30
2017-09-07T15:27:22.695Z,70.60
2017-09-07T15:29:50.203Z,70.20
2017-09-07T15:32:18.552Z,69.20
2017-09-07T15:34:47.160Z,67.10
2017-09-07T15:37:14.645Z,68.10
2017-09-07T15:39:42.407Z,69.50
2017-09-07T15:42:12.068Z,68.70
2017-09-07T15:44:43.462Z,68.60
2017-09-07T15:47:10.971Z,67.90
2017-09-07T15:49:38.471Z,69.10
2017-09-07T15:52:05.975Z,69.60
2017-09-07T15:54:33.622Z,69.20
2017-09-07T15:57:01.145Z,69.30
2017-09-07T15:59:28.653Z,69.60
2017-09-07T16:01:58.251Z,71.00
2017-09-07T16:04:25.735Z,70.40
2017-09-07T16:06:53.246Z,69.80
2017-09-07T16:09:20.856Z,69.90
2017-09-07T16:11:48.348Z,69.60
2017-09-07T16:14:15.861Z,69.40
2017-09-07T16:16:43.923Z,69.70
2017-09-07T16:19:13.443Z,70.10
2017-09-07T16:21:41.441Z,70.10
2017-09-07T16:24:09.544Z,70.00
2017-09-07T16:26:37.437Z,70.80
2017-09-07T16:29:04.989Z,70.80
2017-09-07T16:31:32.531Z,70.50
2017-09-07T16:34:01.979Z,71.00
2017-09-07T16:36:29.562Z,71.80
2017-09-07T16:38:57.069Z,71.00
2017-09-07T16:41:24.604Z,71.30
2017-09-07T16:43:53.637Z,71.40
2017-09-07T16:46:21.995Z,71.20
2017-09-07T16:48:49.538Z,71.00
2017-09-07T16:51:17.064Z,70.50
2017-09-07T16:53:48.966Z,70.90
2017-09-07T16:56:23.021Z,71.10
2017-09-07T16:58:53.369Z,71.30
2017-09-07T17:01:30.856Z,71.60
2017-09-07T17:03:58.367Z,71.90
2017-09-07T17:06:26.840Z,72.10
2017-09-07T17:08:54.348Z,72.30
2017-09-07T17:11:21.834Z,72.10
2017-09-07T17:13:49.343Z,72.90
2017-09-07T17:16:16.882Z,72.50
2017-09-07T17:18:45.599Z,73.00
2017-09-07T17:21:13.082Z,73.10
2017-09-07T17:23:42.803Z,73.20
2017-09-07T17:26:11.262Z,73.60
2017-09-07T17:28:40.115Z,73.60
2017-09-07T17:31:07.627Z,73.50
2017-09-07T17:33:36.043Z,73.60
2017-09-07T17:36:03.554Z,73.90
2017-09-07T17:38:31.098Z,74.10
2017-09-07T17:40:59.831Z,74.00
2017-09-07T17:43:27.329Z,74.30
2017-09-07T17:45:56.283Z,75.00
2017-09-07T17:48:24.446Z,74.70
2017-09-07T17:50:51.947Z,75.60
2017-09-07T17:53:19.451Z,74.80
2017-09-07T17:55:51.011Z,75.60
2017-09-07T17:58:22.931Z,75.50
2017-09-07T18:00:53.623Z,75.60
2017-09-07T18:03:21.131Z,75.20
2017-09-07T18:05:49.299Z,75.30
2017-09-07T18:08:16.786Z,75.50
2017-09-07T18:10:44.307Z,75.70
2017-09-07T18:13:11.807Z,75.70
2017-09-07T18:15:39.376Z,75.90
2017-09-07T18:18:06.929Z,75.70
2017-09-07T18:20:36.443Z,76.20
2017-09-07T18:23:04.634Z,76.30
2017-09-07T18:25:34.101Z,76.00
2017-09-07T18:28:01.640Z,76.00
2017-09-07T18:30:34.027Z,76.90
2017-09-07T18:33:01.656Z,76.70
2017-09-07T18:35:29.229Z,76.30
2017-09-07T18:37:56.786Z,76.60
2017-09-07T18:40:24.362Z,76.30
2017-09-07T18:42:52.304Z,76.10
2017-09-07T18:45:19.799Z,76.10
2017-09-07T18:47:47.303Z,76.00
2017-09-07T18:50:14.790Z,76.50
2017-09-07T18:52:42.303Z,76.30
2017-09-07T18:55:10.734Z,76.50
2017-09-07T18:57:39.254Z,76.90
2017-09-07T19:00:06.763Z,76.60
2017-09-07T19:02:34.271Z,77.10
2017-09-07T19:05:02.695Z,77.00
2017-09-07T19:07:30.195Z,76.50
2017-09-07T19:09:57.714Z,76.60
2017-09-07T19:12:25.232Z,76.60
2017-09-07T19:14:53.697Z,76.80
2017-09-07T19:17:21.194Z,76.80
2017-09-07T19:19:48.748Z,77.50
2017-09-07T19:22:16.374Z,77.70
2017-09-07T19:24:43.871Z,77.80
2017-09-07T19:27:11.379Z,77.90
2017-09-07T19:29:39.870Z,77.90
2017-09-07T19:32:07.419Z,77.90
2017-09-07T19:34:34.947Z,78.00
2017-09-07T19:37:02.468Z,78.00
2017-09-07T19:39:33.673Z,78.00
2017-09-07T19:42:01.420Z,78.60
2017-09-07T19:44:29.365Z,79.00
2017-09-07T19:46:56.920Z,79.00
2017-09-07T19:51:58.267Z,79.00
2017-09-07T19:54:25.805Z,79.10
2017-09-07T19:56:54.272Z,79.30
2017-09-07T19:59:21.806Z,79.40
2017-09-07T20:01:54.299Z,79.10
2017-09-07T20:04:21.768Z,79.50
2017-09-07T20:06:49.299Z,80.10
2017-09-07T20:09:22.426Z,79.60
2017-09-07T20:11:55.047Z,79.80
2017-09-07T20:14:26.556Z,79.60
2017-09-07T20:16:54.103Z,80.00
2017-09-07T20:19:25.704Z,80.30
2017-09-07T20:21:53.315Z,80.00
2017-09-07T20:24:20.892Z,79.80
2017-09-07T20:26:48.431Z,79.70
2017-09-07T20:29:15.964Z,80.40
2017-09-07T20:31:44.729Z,80.20
2017-09-07T20:34:13.700Z,80.70
2017-09-07T20:36:41.569Z,80.70
2017-09-07T20:39:09.251Z,80.60
2017-09-07T20:41:36.991Z,80.60
2017-09-07T20:44:04.762Z,80.70
2017-09-07T20:46:32.412Z,80.70
2017-09-07T20:49:01.845Z,80.50
2017-09-07T20:51:29.776Z,80.40
2017-09-07T20:53:58.586Z,80.80
2017-09-07T20:56:26.317Z,80.90
2017-09-07T20:58:54.010Z,80.80
2017-09-07T21:03:59.815Z,80.90
2017-09-07T21:06:28.031Z,80.90
2017-09-07T21:09:01.128Z,81.10
2017-09-07T21:11:32.171Z,81.60
2017-09-07T21:13:59.651Z,81.40
2017-09-07T21:16:27.220Z,81.70
2017-09-07T21:18:55.112Z,81.90
2017-09-07T21:21:22.638Z,81.90
2017-09-07T21:23:50.131Z,81.80
2017-09-07T21:26:18.833Z,81.60
2017-09-07T21:28:46.326Z,81.80
2017-09-07T21:31:14.242Z,81.70
2017-09-07T21:33:42.582Z,81.70
2017-09-07T21:36:10.086Z,81.50
2017-09-07T21:38:39.526Z,81.50
2017-09-07T21:41:07.038Z,81.30
2017-09-07T21:43:34.559Z,81.60
2017-09-07T21:46:02.060Z,82.10
2017-09-07T21:48:29.566Z,82.10
2017-09-07T21:50:57.066Z,81.70
2017-09-07T21:53:24.805Z,81.40
2017-09-07T21:55:53.118Z,81.40
2017-09-07T21:58:20.663Z,81.20
2017-09-07T22:00:48.159Z,81.30
2017-09-07T22:03:16.662Z,81.30
2017-09-07T22:05:44.150Z,81.20
2017-09-07T22:08:11.671Z,82.00
2017-09-07T22:10:39.155Z,81.50
2017-09-07T22:13:06.665Z,81.80
2017-09-07T22:15:34.164Z,81.70
2017-09-07T22:18:02.066Z,82.20
2017-09-07T22:20:30.829Z,82.20
2017-09-07T22:23:00.794Z,82.20
2017-09-07T22:25:28.440Z,82.20
2017-09-07T22:28:04.747Z,81.80
2017-09-07T22:30:33.132Z,81.90
2017-09-07T22:33:00.772Z,82.20
2017-09-07T22:35:30.813Z,82.20
2017-09-07T22:37:59.405Z,82.60
2017-09-07T22:40:27.006Z,82.60
2017-09-07T22:42:55.323Z,82.70
2017-09-07T22:45:22.867Z,82.60
2017-09-07T22:47:50.455Z,82.60
2017-09-07T22:50:18.010Z,82.60
2017-09-07T22:52:45.623Z,82.30
2017-09-07T22:55:13.143Z,82.70
2017-09-07T22:57:40.691Z,82.40
2017-09-07T23:00:08.308Z,82.90
2017-09-07T23:02:36.791Z,82.80
2017-09-07T23:05:04.383Z,82.80
2017-09-07T23:07:31.958Z,82.90
2017-09-07T23:10:00.783Z,83.10
2017-09-07T23:12:28.892Z,82.80
2017-09-07T23:14:56.474Z,82.60
2017-09-07T23:17:24.021Z,82.70
2017-09-07T23:19:51.534Z,82.70
2017-09-07T23:22:19.199Z,82.90
2017-09-07T23:24:46.847Z,82.70
2017-09-07T23:27:14.513Z,82.90
2017-09-07T23:29:43.011Z,82.50
2017-09-07T23:32:10.665Z,82.70
2017-09-07T23:34:38.321Z,82.80
2017-09-07T23:37:08.260Z,82.80
2017-09-07T23:39:35.750Z,82.60
2017-09-07T23:42:03.270Z,83.10
2017-09-07T23:44:31.549Z,82.90
2017-09-07T23:46:59.085Z,83.10
2017-09-07T23:49:26.605Z,82.60
2017-09-07T23:51:54.777Z,83.00
2017-09-07T23:54:22.274Z,82.90
2017-09-07T23:56:49.766Z,82.70
2017-09-07T23:59:17.647Z,82.70
